Time;durP1;ratioP1;P1;durP2;ratioP2;P2;SDS_P1;SDS_P2;PMS_P1;PMS_P2;Temp;Humidity;BMP_temperature;BMP_pressure;BME280_temperature;BME280_humidity;BME280_pressure;Samples;Min_cycle;Max_cycle;Signal;HPM_P1;HPM_P2
2023/05/16 00:00:57;;;;;;;;;;;7.40;99.90;;;;;;5124865;27;19995;-84
2023/05/16 00:03:22;;;;;;;;;;;7.30;99.90;;;;;;5143805;27;20306;-83
2023/05/16 00:05:49;;;;;;;;;;;7.30;99.90;;;;;;5147143;27;19937;-83
2023/05/16 00:08:15;;;;;;;;;;;7.30;99.90;;;;;;5112218;27;19927;-83
2023/05/16 00:10:40;;;;;;;;;;;7.30;99.90;;;;;;5138487;27;19927;-84
2023/05/16 00:13:06;;;;;;;;;;;7.20;99.90;;;;;;5147287;27;19927;-83
2023/05/16 00:15:32;;;;;;;;;;;7.20;99.90;;;;;;5141605;27;20316;-83
2023/05/16 00:17:58;;;;;;;;;;;7.20;99.90;;;;;;5148383;27;20552;-83
2023/05/16 00:20:27;;;;;;;;;;;7.20;99.90;;;;;;5142565;27;19923;-83
2023/05/16 00:22:53;;;;;;;;;;;7.30;99.90;;;;;;5124115;27;19924;-83
2023/05/16 00:25:19;;;;;;;;;;;7.30;99.90;;;;;;5142326;27;20208;-84
2023/05/16 00:27:45;;;;;;;;;;;7.40;99.90;;;;;;5144653;27;19974;-84
2023/05/16 00:30:11;;;;;;;;;;;7.30;99.90;;;;;;5138359;27;20024;-84
2023/05/16 00:32:36;;;;;;;;;;;7.30;99.90;;;;;;5140068;27;20019;-84
2023/05/16 00:35:02;;;;;;;;;;;7.30;99.90;;;;;;5107490;27;19928;-84
2023/05/16 00:37:28;;;;;;;;;;;7.30;99.90;;;;;;5127639;27;19927;-84
2023/05/16 00:39:53;;;;;;;;;;;7.20;99.90;;;;;;5143894;27;20336;-83
2023/05/16 00:42:19;;;;;;;;;;;7.10;99.90;;;;;;5148042;27;19931;-84
2023/05/16 00:44:45;;;;;;;;;;;7.00;99.90;;;;;;5140523;27;20019;-84
2023/05/16 00:47:11;;;;;;;;;;;7.00;99.90;;;;;;5143619;27;19924;-84
2023/05/16 00:49:37;;;;;;;;;;;7.00;99.90;;;;;;5127169;27;19962;-84
2023/05/16 00:52:03;;;;;;;;;;;6.90;99.90;;;;;;5148719;27;19976;-84
2023/05/16 00:54:29;;;;;;;;;;;6.90;99.90;;;;;;5147589;27;19931;-84
2023/05/16 00:56:58;;;;;;;;;;;6.80;99.90;;;;;;5127185;27;19927;-83
2023/05/16 00:59:23;;;;;;;;;;;6.80;99.90;;;;;;5149273;27;19971;-84
2023/05/16 01:01:49;;;;;;;;;;;6.70;99.90;;;;;;5128823;27;19931;-83
2023/05/16 01:04:15;;;;;;;;;;;6.70;99.90;;;;;;5143123;27;19927;-84
2023/05/16 01:06:41;;;;;;;;;;;6.80;99.90;;;;;;5145511;27;19923;-84
2023/05/16 01:09:07;;;;;;;;;;;6.90;99.90;;;;;;5137120;27;19980;-84
2023/05/16 01:11:47;;;;;;;;;;;6.80;99.90;;;;;;5145724;27;20410;-85
2023/05/16 01:14:21;;;;;;;;;;;6.80;99.90;;;;;;5129670;27;19923;-84
2023/05/16 01:16:54;;;;;;;;;;;6.70;99.90;;;;;;5139817;27;19948;-84
2023/05/16 01:19:39;;;;;;;;;;;6.70;99.90;;;;;;5130868;27;20018;-84
2023/05/16 01:22:18;;;;;;;;;;;6.60;99.90;;;;;;5143546;27;19927;-84
2023/05/16 01:24:59;;;;;;;;;;;6.60;99.90;;;;;;5140215;27;20008;-84
2023/05/16 01:27:26;;;;;;;;;;;6.60;99.90;;;;;;5146608;27;19927;-84
2023/05/16 01:29:55;;;;;;;;;;;6.60;99.90;;;;;;5131776;27;20021;-83
2023/05/16 01:32:21;;;;;;;;;;;6.60;99.90;;;;;;5130694;27;19968;-83
2023/05/16 01:34:47;;;;;;;;;;;6.60;99.90;;;;;;5150592;27;19937;-83
2023/05/16 01:37:45;;;;;;;;;;;6.60;99.90;;;;;;5125229;27;19930;-83
2023/05/16 01:40:15;;;;;;;;;;;6.50;99.90;;;;;;5109445;27;20395;-83
2023/05/16 01:42:43;;;;;;;;;;;6.50;99.90;;;;;;5146841;27;19941;-84
2023/05/16 01:45:20;;;;;;;;;;;6.40;99.90;;;;;;5137121;27;19927;-84
2023/05/16 01:47:50;;;;;;;;;;;6.40;99.90;;;;;;5146766;27;19933;-84
2023/05/16 01:50:16;;;;;;;;;;;6.30;99.90;;;;;;5137414;27;19938;-84
2023/05/16 01:52:49;;;;;;;;;;;6.20;99.90;;;;;;5130690;27;19991;-84
2023/05/16 01:55:23;;;;;;;;;;;6.20;99.90;;;;;;5124823;27;20044;-83
2023/05/16 01:57:50;;;;;;;;;;;6.20;99.90;;;;;;5125589;27;19947;-83
2023/05/16 02:00:16;;;;;;;;;;;6.10;99.90;;;;;;5129606;27;19930;-84
2023/05/16 02:02:42;;;;;;;;;;;6.10;99.90;;;;;;5129572;27;19935;-83
2023/05/16 02:05:07;;;;;;;;;;;6.10;99.90;;;;;;5095133;28;19995;-83
2023/05/16 02:07:33;;;;;;;;;;;6.10;99.90;;;;;;5111417;27;19931;-83
2023/05/16 02:09:58;;;;;;;;;;;6.10;99.90;;;;;;5128690;27;19989;-83
2023/05/16 02:12:24;;;;;;;;;;;6.00;99.90;;;;;;5127864;27;19935;-83
2023/05/16 02:14:49;;;;;;;;;;;6.00;99.90;;;;;;5122402;27;19932;-83
2023/05/16 02:17:15;;;;;;;;;;;6.00;99.90;;;;;;5097732;27;19924;-84
2023/05/16 02:19:41;;;;;;;;;;;6.00;99.90;;;;;;5107976;27;19930;-83
2023/05/16 02:22:06;;;;;;;;;;;6.00;99.90;;;;;;5128684;27;19931;-83
2023/05/16 02:24:32;;;;;;;;;;;6.10;99.90;;;;;;5112951;27;19931;-83
2023/05/16 02:26:57;;;;;;;;;;;6.20;99.90;;;;;;5125552;27;19923;-83
2023/05/16 02:29:23;;;;;;;;;;;6.20;99.90;;;;;;5126275;27;20268;-83
2023/05/16 02:31:48;;;;;;;;;;;6.30;99.90;;;;;;5108492;27;19930;-83
2023/05/16 02:34:14;;;;;;;;;;;6.30;99.90;;;;;;5121360;27;19927;-83
2023/05/16 02:36:40;;;;;;;;;;;6.30;99.90;;;;;;5105378;27;20005;-83
2023/05/16 02:39:07;;;;;;;;;;;6.30;99.90;;;;;;5115555;27;19932;-84
2023/05/16 02:41:33;;;;;;;;;;;6.20;99.90;;;;;;5110076;27;20379;-83
2023/05/16 02:43:58;;;;;;;;;;;6.10;99.90;;;;;;5112994;27;19923;-83
2023/05/16 02:46:29;;;;;;;;;;;6.00;99.90;;;;;;5110370;27;20455;-84
2023/05/16 02:48:55;;;;;;;;;;;6.00;99.90;;;;;;5136981;27;19931;-83
2023/05/16 02:51:21;;;;;;;;;;;6.00;99.90;;;;;;5125708;27;20503;-83
2023/05/16 02:53:47;;;;;;;;;;;6.00;99.90;;;;;;5135404;27;19923;-84
2023/05/16 02:56:13;;;;;;;;;;;6.10;99.90;;;;;;5147130;27;19930;-83
2023/05/16 02:58:38;;;;;;;;;;;6.20;99.90;;;;;;5152729;27;19937;-83
2023/05/16 03:01:04;;;;;;;;;;;6.30;99.90;;;;;;5129569;27;19927;-83
2023/05/16 03:03:30;;;;;;;;;;;6.40;99.90;;;;;;5102405;27;19976;-84
2023/05/16 03:05:55;;;;;;;;;;;6.50;99.90;;;;;;5128218;27;19927;-83
2023/05/16 03:08:21;;;;;;;;;;;6.50;99.90;;;;;;5137410;27;20281;-83
2023/05/16 03:10:46;;;;;;;;;;;6.60;99.90;;;;;;5140180;27;19923;-82
2023/05/16 03:13:12;;;;;;;;;;;6.60;99.90;;;;;;5148088;27;19924;-83
2023/05/16 03:15:37;;;;;;;;;;;6.60;99.90;;;;;;5166517;27;19927;-83
2023/05/16 03:18:03;;;;;;;;;;;6.50;99.90;;;;;;5125558;27;19976;-83
2023/05/16 03:20:28;;;;;;;;;;;6.40;99.90;;;;;;5145685;27;19971;-82
2023/05/16 03:22:54;;;;;;;;;;;6.40;99.90;;;;;;5143004;27;20398;-83
2023/05/16 03:25:20;;;;;;;;;;;6.30;99.90;;;;;;5149297;27;19993;-83
2023/05/16 03:27:45;;;;;;;;;;;6.30;99.90;;;;;;5147553;27;19975;-83
2023/05/16 03:30:11;;;;;;;;;;;6.20;99.90;;;;;;5142091;27;19930;-83
2023/05/16 03:32:37;;;;;;;;;;;6.20;99.90;;;;;;5145564;27;20276;-83
2023/05/16 03:35:03;;;;;;;;;;;6.20;99.90;;;;;;5125819;27;19976;-83
2023/05/16 03:37:28;;;;;;;;;;;6.20;99.90;;;;;;5128054;27;20379;-83
2023/05/16 03:39:54;;;;;;;;;;;6.20;99.90;;;;;;5142550;27;19931;-83
2023/05/16 03:42:20;;;;;;;;;;;6.20;99.90;;;;;;5139461;27;19974;-83
2023/05/16 03:44:45;;;;;;;;;;;6.20;99.90;;;;;;5125369;27;19970;-83
2023/05/16 03:47:11;;;;;;;;;;;6.20;99.90;;;;;;5143234;27;20432;-84
2023/05/16 03:49:37;;;;;;;;;;;6.20;99.90;;;;;;5152235;27;19926;-83
2023/05/16 03:52:03;;;;;;;;;;;6.20;99.90;;;;;;5133814;27;20368;-83
2023/05/16 03:54:29;;;;;;;;;;;6.10;99.90;;;;;;5147314;27;19927;-83
2023/05/16 03:56:54;;;;;;;;;;;6.10;99.90;;;;;;5146638;27;20330;-83
2023/05/16 03:59:20;;;;;;;;;;;6.10;99.90;;;;;;5131539;27;19934;-83
2023/05/16 04:01:46;;;;;;;;;;;6.10;99.90;;;;;;5107918;27;19927;-84
2023/05/16 04:04:11;;;;;;;;;;;6.10;99.90;;;;;;5139503;27;20035;-83
2023/05/16 04:06:37;;;;;;;;;;;6.20;99.90;;;;;;5119408;27;19927;-83
2023/05/16 04:09:02;;;;;;;;;;;6.30;99.90;;;;;;5140366;27;19923;-83
2023/05/16 04:11:28;;;;;;;;;;;6.40;99.90;;;;;;5137855;27;19931;-84
2023/05/16 04:13:54;;;;;;;;;;;6.60;99.90;;;;;;5142894;27;20007;-83
2023/05/16 04:16:20;;;;;;;;;;;6.70;99.90;;;;;;5126961;27;19931;-83
2023/05/16 04:18:45;;;;;;;;;;;6.70;99.90;;;;;;5130791;27;19980;-84
2023/05/16 04:21:14;;;;;;;;;;;6.90;99.90;;;;;;5138999;27;19951;-83
2023/05/16 04:23:40;;;;;;;;;;;6.90;99.90;;;;;;5145164;27;20061;-83
2023/05/16 04:26:05;;;;;;;;;;;6.90;99.90;;;;;;5149198;27;20489;-82
2023/05/16 04:28:31;;;;;;;;;;;6.90;99.90;;;;;;5144061;27;19931;-83
2023/05/16 04:30:56;;;;;;;;;;;6.80;99.90;;;;;;5145316;27;20324;-83
2023/05/16 04:33:22;;;;;;;;;;;6.70;99.90;;;;;;5137098;27;19932;-83
2023/05/16 04:35:48;;;;;;;;;;;6.70;99.90;;;;;;5145003;27;20635;-83
2023/05/16 04:38:14;;;;;;;;;;;6.60;99.90;;;;;;5125358;27;19930;-83
2023/05/16 04:40:43;;;;;;;;;;;6.60;99.90;;;;;;5149256;27;20307;-83
2023/05/16 04:43:08;;;;;;;;;;;6.60;99.90;;;;;;5109260;27;19934;-83
2023/05/16 04:45:34;;;;;;;;;;;6.60;99.90;;;;;;5129050;27;19927;-84
2023/05/16 04:48:00;;;;;;;;;;;6.60;99.90;;;;;;5115669;27;19977;-84
2023/05/16 04:50:25;;;;;;;;;;;6.70;99.90;;;;;;5122737;27;19953;-84
2023/05/16 04:52:51;;;;;;;;;;;6.70;99.90;;;;;;5145203;27;19967;-84
2023/05/16 04:55:17;;;;;;;;;;;6.80;99.90;;;;;;5143303;27;19923;-84
2023/05/16 04:57:42;;;;;;;;;;;7.10;99.90;;;;;;5122455;27;19931;-83
2023/05/16 05:00:11;;;;;;;;;;;7.40;99.90;;;;;;5127099;27;20249;-81
2023/05/16 05:02:37;;;;;;;;;;;7.60;99.90;;;;;;5138382;27;19935;-83
2023/05/16 05:05:04;;;;;;;;;;;7.60;99.90;;;;;;5150651;27;20003;-81
2023/05/16 05:07:30;;;;;;;;;;;7.50;99.90;;;;;;5143838;27;19931;-81
2023/05/16 05:09:55;;;;;;;;;;;7.50;99.90;;;;;;5138969;27;19927;-81
2023/05/16 05:12:21;;;;;;;;;;;7.50;99.90;;;;;;5140550;27;19980;-85
2023/05/16 05:14:47;;;;;;;;;;;7.70;99.90;;;;;;5138723;27;19930;-80
2023/05/16 05:17:12;;;;;;;;;;;7.90;99.90;;;;;;5143070;27;20022;-82
2023/05/16 05:19:38;;;;;;;;;;;8.00;99.90;;;;;;5126568;27;19930;-80
2023/05/16 05:22:03;;;;;;;;;;;8.00;99.90;;;;;;5145207;27;20008;-83
2023/05/16 05:24:29;;;;;;;;;;;8.00;99.90;;;;;;5157146;27;19985;-84
2023/05/16 05:26:55;;;;;;;;;;;8.10;99.90;;;;;;5143158;27;19969;-81
2023/05/16 05:29:21;;;;;;;;;;;8.00;99.90;;;;;;5125478;27;19927;-82
2023/05/16 05:31:47;;;;;;;;;;;8.00;99.90;;;;;;5123570;27;19923;-82
2023/05/16 05:34:12;;;;;;;;;;;7.90;99.90;;;;;;5120872;27;20009;-78
2023/05/16 05:36:38;;;;;;;;;;;7.90;99.90;;;;;;5135361;27;19923;-82
2023/05/16 05:39:03;;;;;;;;;;;8.00;99.90;;;;;;5119184;27;19952;-84
2023/05/16 05:41:29;;;;;;;;;;;8.10;99.90;;;;;;5137716;27;19975;-84
2023/05/16 05:43:54;;;;;;;;;;;8.20;99.90;;;;;;5147659;27;19934;-83
2023/05/16 05:46:20;;;;;;;;;;;8.10;99.90;;;;;;5136439;27;19934;-81
2023/05/16 05:48:46;;;;;;;;;;;8.10;99.90;;;;;;5141292;27;20562;-84
2023/05/16 05:51:13;;;;;;;;;;;8.10;99.90;;;;;;5118891;27;20057;-83
2023/05/16 05:53:39;;;;;;;;;;;8.20;99.90;;;;;;5138091;27;19923;-84
2023/05/16 05:56:05;;;;;;;;;;;8.30;99.90;;;;;;5145455;27;19934;-84
2023/05/16 05:58:30;;;;;;;;;;;8.40;99.90;;;;;;5149615;27;19971;-84
2023/05/16 06:00:56;;;;;;;;;;;8.50;99.90;;;;;;5119975;27;19923;-83
2023/05/16 06:03:22;;;;;;;;;;;8.50;99.90;;;;;;5126593;28;19931;-83
2023/05/16 06:05:47;;;;;;;;;;;8.60;99.90;;;;;;5125364;27;19930;-84
2023/05/16 06:08:13;;;;;;;;;;;8.70;99.90;;;;;;5137709;27;19923;-83
2023/05/16 06:10:39;;;;;;;;;;;8.80;99.90;;;;;;5142480;27;19931;-83
2023/05/16 06:13:04;;;;;;;;;;;9.00;99.90;;;;;;5142501;27;19957;-83
2023/05/16 06:15:30;;;;;;;;;;;9.20;99.90;;;;;;5132799;27;19933;-84
2023/05/16 06:17:55;;;;;;;;;;;9.40;99.90;;;;;;5143884;27;19975;-83
2023/05/16 06:20:21;;;;;;;;;;;9.60;99.90;;;;;;5130468;27;19924;-84
2023/05/16 06:22:47;;;;;;;;;;;9.80;99.90;;;;;;5148828;27;19923;-84
2023/05/16 06:25:12;;;;;;;;;;;10.00;99.90;;;;;;5142604;27;19930;-82
2023/05/16 06:27:38;;;;;;;;;;;10.20;99.90;;;;;;5142595;27;19923;-82
2023/05/16 06:30:03;;;;;;;;;;;10.40;99.90;;;;;;5127809;27;19934;-82
2023/05/16 06:32:29;;;;;;;;;;;10.50;99.90;;;;;;5150083;27;20000;-81
2023/05/16 06:34:55;;;;;;;;;;;10.70;99.90;;;;;;5119651;27;19937;-81
2023/05/16 06:37:22;;;;;;;;;;;10.90;99.90;;;;;;5134264;27;19927;-82
2023/05/16 06:39:48;;;;;;;;;;;11.00;99.90;;;;;;5140103;27;19924;-82
2023/05/16 06:42:13;;;;;;;;;;;11.20;99.90;;;;;;5127797;27;19923;-82
2023/05/16 06:44:40;;;;;;;;;;;11.40;99.90;;;;;;5152089;27;19931;-82
2023/05/16 06:47:05;;;;;;;;;;;11.70;99.90;;;;;;5107879;27;20684;-82
2023/05/16 06:49:31;;;;;;;;;;;11.80;99.90;;;;;;5162952;27;19926;-82
2023/05/16 06:51:56;;;;;;;;;;;12.00;99.90;;;;;;5157126;27;19923;-82
2023/05/16 06:54:22;;;;;;;;;;;12.10;99.90;;;;;;5174635;27;19922;-82
2023/05/16 06:56:48;;;;;;;;;;;12.20;99.90;;;;;;5156302;27;19923;-82
2023/05/16 06:59:13;;;;;;;;;;;12.30;99.90;;;;;;5117003;27;19923;-82
2023/05/16 07:01:40;;;;;;;;;;;12.40;99.90;;;;;;5166169;27;20135;-82
2023/05/16 07:04:05;;;;;;;;;;;12.30;99.90;;;;;;5155931;27;19927;-82
2023/05/16 07:06:31;;;;;;;;;;;12.10;99.90;;;;;;5174999;27;20006;-82
2023/05/16 07:08:57;;;;;;;;;;;12.20;99.90;;;;;;5155026;27;19975;-82
2023/05/16 07:11:22;;;;;;;;;;;12.30;99.90;;;;;;5155903;27;19937;-82
2023/05/16 07:13:48;;;;;;;;;;;12.40;99.90;;;;;;5173285;27;19922;-82
2023/05/16 07:16:14;;;;;;;;;;;12.50;99.90;;;;;;5144211;27;19923;-83
2023/05/16 07:18:39;;;;;;;;;;;12.50;99.90;;;;;;5131382;27;19954;-82
2023/05/16 07:21:05;;;;;;;;;;;12.60;99.90;;;;;;5115345;27;20009;-83
2023/05/16 07:23:30;;;;;;;;;;;12.70;99.90;;;;;;5155844;27;20294;-82
2023/05/16 07:25:57;;;;;;;;;;;12.90;99.90;;;;;;5156386;27;19923;-81
2023/05/16 07:28:22;;;;;;;;;;;12.90;99.90;;;;;;5149467;27;19923;-82
2023/05/16 07:30:48;;;;;;;;;;;13.00;99.40;;;;;;5149494;27;19929;-82
2023/05/16 07:33:14;;;;;;;;;;;13.20;99.90;;;;;;5174089;27;19948;-82
2023/05/16 07:35:39;;;;;;;;;;;13.30;99.90;;;;;;5155846;27;19937;-82
2023/05/16 07:38:05;;;;;;;;;;;13.50;93.50;;;;;;5164243;27;19927;-82
2023/05/16 07:40:31;;;;;;;;;;;13.60;98.80;;;;;;5144042;27;19927;-82
2023/05/16 07:42:57;;;;;;;;;;;13.60;96.30;;;;;;5148523;27;20386;-82
2023/05/16 07:45:22;;;;;;;;;;;13.70;90.70;;;;;;5147077;27;19922;-82
2023/05/16 07:47:48;;;;;;;;;;;13.90;85.20;;;;;;5153476;27;19929;-82
2023/05/16 07:50:14;;;;;;;;;;;14.00;95.50;;;;;;5155329;27;19929;-82
2023/05/16 07:52:39;;;;;;;;;;;13.90;93.20;;;;;;5155147;27;19953;-82
2023/05/16 07:55:05;;;;;;;;;;;13.80;84.10;;;;;;5138878;27;20622;-82
2023/05/16 07:57:31;;;;;;;;;;;13.70;84.30;;;;;;5120723;27;20026;-82
2023/05/16 07:59:57;;;;;;;;;;;13.80;75.90;;;;;;5145868;27;19922;-82
2023/05/16 08:02:25;;;;;;;;;;;13.70;84.40;;;;;;5153817;27;20006;-82
2023/05/16 08:04:50;;;;;;;;;;;13.50;86.90;;;;;;5144976;27;19931;-82
2023/05/16 08:07:16;;;;;;;;;;;13.20;88.40;;;;;;5137026;27;19934;-81
2023/05/16 08:09:41;;;;;;;;;;;12.80;90.50;;;;;;5156165;27;19930;-82
2023/05/16 08:12:07;;;;;;;;;;;12.50;91.00;;;;;;5152733;27;19966;-83
2023/05/16 08:14:33;;;;;;;;;;;12.30;74.90;;;;;;5138560;27;20295;-82
2023/05/16 08:16:59;;;;;;;;;;;12.20;83.70;;;;;;5134789;27;20426;-82
2023/05/16 08:19:25;;;;;;;;;;;12.30;91.40;;;;;;5142698;27;19926;-82
2023/05/16 08:21:50;;;;;;;;;;;12.40;78.90;;;;;;5148114;27;19949;-82
2023/05/16 08:24:16;;;;;;;;;;;12.90;77.10;;;;;;5148635;27;19930;-82
2023/05/16 08:26:42;;;;;;;;;;;14.00;76.90;;;;;;5154806;27;19930;-82
2023/05/16 08:29:07;;;;;;;;;;;15.00;74.90;;;;;;5154469;27;20477;-82
2023/05/16 08:31:33;;;;;;;;;;;16.00;56.30;;;;;;5148027;27;19984;-82
2023/05/16 08:34:00;;;;;;;;;;;16.70;56.20;;;;;;5147846;27;19969;-82
2023/05/16 08:36:26;;;;;;;;;;;16.90;49.80;;;;;;5130947;27;20375;-82
2023/05/16 08:38:52;;;;;;;;;;;16.10;46.90;;;;;;5133942;27;19936;-82
2023/05/16 08:41:17;;;;;;;;;;;15.50;50.10;;;;;;5125247;27;19926;-82
2023/05/16 08:43:43;;;;;;;;;;;16.00;57.40;;;;;;5155212;27;20267;-82
2023/05/16 08:46:09;;;;;;;;;;;16.70;52.10;;;;;;5158441;27;19923;-82
2023/05/16 08:48:37;;;;;;;;;;;16.70;48.80;;;;;;5152294;27;20226;-82
2023/05/16 08:51:05;;;;;;;;;;;16.60;54.40;;;;;;5153535;27;19927;-82
2023/05/16 08:53:32;;;;;;;;;;;16.90;52.30;;;;;;5155320;27;20379;-82
2023/05/16 08:55:58;;;;;;;;;;;17.30;46.90;;;;;;5172561;27;20316;-82
2023/05/16 08:58:24;;;;;;;;;;;17.70;48.10;;;;;;5173207;27;19923;-82
2023/05/16 09:00:50;;;;;;;;;;;17.90;48.70;;;;;;5153325;27;19931;-83
2023/05/16 09:03:16;;;;;;;;;;;18.20;49.40;;;;;;5172466;27;19927;-82
2023/05/16 09:05:42;;;;;;;;;;;18.90;45.00;;;;;;5172909;27;19923;-82
2023/05/16 09:08:07;;;;;;;;;;;19.20;43.70;;;;;;5137379;27;19927;-82
2023/05/16 09:10:33;;;;;;;;;;;19.30;42.90;;;;;;5131073;27;19923;-82
2023/05/16 09:12:58;;;;;;;;;;;19.20;44.60;;;;;;5141183;27;19922;-82
2023/05/16 09:15:30;;;;;;;;;;;19.80;47.90;;;;;;5133631;27;20648;-82
2023/05/16 09:17:58;;;;;;;;;;;20.60;39.50;;;;;;5154528;27;19927;-82
2023/05/16 09:20:25;;;;;;;;;;;20.50;35.40;;;;;;5134713;27;19997;-82
2023/05/16 09:22:52;;;;;;;;;;;20.00;38.60;;;;;;5124733;27;19927;-83
2023/05/16 09:25:17;;;;;;;;;;;20.10;37.00;;;;;;5136237;27;19922;-83
2023/05/16 09:27:45;;;;;;;;;;;20.40;35.20;;;;;;5154269;27;19922;-83
2023/05/16 09:30:13;;;;;;;;;;;20.80;37.90;;;;;;5152339;27;19931;-83
2023/05/16 09:32:41;;;;;;;;;;;20.40;35.10;;;;;;5171987;27;19931;-83
2023/05/16 09:35:09;;;;;;;;;;;19.20;36.10;;;;;;5172078;27;20500;-83
2023/05/16 09:37:35;;;;;;;;;;;17.70;35.60;;;;;;5130085;27;19926;-82
2023/05/16 09:40:02;;;;;;;;;;;16.80;38.50;;;;;;5140377;27;19934;-83
2023/05/16 09:42:27;;;;;;;;;;;16.70;39.40;;;;;;5147111;27;20002;-83
2023/05/16 09:44:54;;;;;;;;;;;16.30;41.20;;;;;;5154210;27;19967;-83
2023/05/16 09:47:20;;;;;;;;;;;16.00;43.20;;;;;;5122267;27;19930;-84
2023/05/16 09:49:47;;;;;;;;;;;16.90;44.30;;;;;;5171195;27;19934;-83
2023/05/16 09:52:13;;;;;;;;;;;18.20;45.60;;;;;;5172271;27;19923;-83
2023/05/16 09:54:39;;;;;;;;;;;19.50;43.40;;;;;;5153318;27;19987;-83
2023/05/16 09:57:04;;;;;;;;;;;20.60;38.10;;;;;;5153205;27;19927;-83
2023/05/16 09:59:34;;;;;;;;;;;21.30;33.20;;;;;;5129312;27;19934;-83
2023/05/16 10:02:00;;;;;;;;;;;21.10;29.60;;;;;;5133665;27;19984;-83
2023/05/16 10:04:25;;;;;;;;;;;21.00;29.80;;;;;;5152415;27;19931;-83
2023/05/16 10:06:52;;;;;;;;;;;19.90;33.00;;;;;;5117454;27;20365;-83
2023/05/16 10:09:19;;;;;;;;;;;19.00;32.80;;;;;;5159395;27;19949;-82
2023/05/16 10:11:45;;;;;;;;;;;18.20;36.90;;;;;;5173278;27;19927;-83
2023/05/16 10:14:12;;;;;;;;;;;18.90;39.20;;;;;;5175129;27;20327;-83
2023/05/16 10:16:41;;;;;;;;;;;18.80;34.10;;;;;;5157626;27;19931;-83
2023/05/16 10:19:07;;;;;;;;;;;18.30;35.90;;;;;;5175301;27;19923;-84
2023/05/16 10:21:34;;;;;;;;;;;18.80;35.90;;;;;;5144004;27;19930;-83
2023/05/16 10:24:02;;;;;;;;;;;19.90;37.00;;;;;;5140907;27;19966;-83
2023/05/16 10:26:28;;;;;;;;;;;20.50;31.80;;;;;;5157338;27;19923;-83
2023/05/16 10:28:54;;;;;;;;;;;20.70;35.50;;;;;;5140643;27;19972;-83
2023/05/16 10:31:20;;;;;;;;;;;20.70;30.90;;;;;;5157061;27;20313;-83
2023/05/16 10:33:46;;;;;;;;;;;19.50;32.30;;;;;;5177016;27;19923;-83
2023/05/16 10:36:12;;;;;;;;;;;18.70;36.70;;;;;;5153320;27;19927;-83
2023/05/16 10:38:38;;;;;;;;;;;19.50;36.20;;;;;;5138775;27;19962;-83
2023/05/16 10:41:04;;;;;;;;;;;20.60;34.80;;;;;;5144306;27;20109;-83
2023/05/16 10:43:30;;;;;;;;;;;21.50;31.20;;;;;;5157625;27;20401;-83
2023/05/16 10:45:55;;;;;;;;;;;22.40;30.30;;;;;;5155529;27;19927;-83
2023/05/16 10:48:31;;;;;;;;;;;22.40;28.70;;;;;;5130060;27;19934;-83
2023/05/16 10:50:57;;;;;;;;;;;21.50;29.90;;;;;;5155456;27;19922;-83
2023/05/16 10:53:29;;;;;;;;;;;20.20;33.00;;;;;;5156890;27;19974;-83
2023/05/16 10:55:57;;;;;;;;;;;18.80;36.00;;;;;;5150005;27;20360;-83
2023/05/16 10:58:33;;;;;;;;;;;19.20;36.80;;;;;;5148560;27;19922;-83
2023/05/16 11:01:15;;;;;;;;;;;20.50;33.40;;;;;;5156981;27;19930;-83
2023/05/16 11:04:04;;;;;;;;;;;21.40;32.90;;;;;;5154443;27;19938;-83
2023/05/16 11:06:39;;;;;;;;;;;21.20;30.70;;;;;;5134872;27;19935;-83
2023/05/16 11:09:09;;;;;;;;;;;21.00;30.30;;;;;;5173625;27;19927;-83
2023/05/16 11:11:37;;;;;;;;;;;19.90;31.50;;;;;;5143378;27;19930;-83
2023/05/16 11:14:03;;;;;;;;;;;18.60;33.40;;;;;;5144538;27;19923;-83
2023/05/16 11:16:28;;;;;;;;;;;17.90;36.40;;;;;;5125265;27;19923;-83
2023/05/16 11:19:03;;;;;;;;;;;18.30;34.90;;;;;;5148794;27;19955;-83
2023/05/16 11:21:47;;;;;;;;;;;18.70;35.70;;;;;;5150817;27;19929;-83
2023/05/16 11:24:29;;;;;;;;;;;20.20;37.40;;;;;;5154952;27;19922;-83
2023/05/16 11:26:54;;;;;;;;;;;20.30;34.30;;;;;;5142261;27;20427;-83
2023/05/16 11:29:21;;;;;;;;;;;19.70;30.50;;;;;;5155886;27;19931;-83
2023/05/16 11:31:46;;;;;;;;;;;19.30;33.30;;;;;;5155739;27;19983;-83
2023/05/16 11:34:12;;;;;;;;;;;19.40;35.50;;;;;;5174334;27;19923;-83
2023/05/16 11:36:39;;;;;;;;;;;19.20;32.40;;;;;;5149581;27;19930;-83
2023/05/16 11:39:11;;;;;;;;;;;19.30;34.60;;;;;;5124105;27;19972;-83
2023/05/16 11:41:37;;;;;;;;;;;19.20;34.40;;;;;;5117221;27;19927;-84
2023/05/16 11:44:04;;;;;;;;;;;20.60;33.00;;;;;;5149585;27;19922;-83
2023/05/16 11:46:30;;;;;;;;;;;21.00;32.00;;;;;;5148802;27;20701;-83
2023/05/16 11:48:56;;;;;;;;;;;20.80;28.30;;;;;;5149088;27;19923;-83
2023/05/16 11:51:22;;;;;;;;;;;19.80;28.80;;;;;;5154575;27;19923;-83
2023/05/16 11:53:48;;;;;;;;;;;18.40;29.80;;;;;;5155854;27;20427;-83
2023/05/16 11:56:14;;;;;;;;;;;17.50;33.70;;;;;;5173299;27;19922;-83
2023/05/16 11:58:41;;;;;;;;;;;16.60;36.90;;;;;;5155629;27;20355;-83
2023/05/16 12:01:07;;;;;;;;;;;16.10;38.40;;;;;;5143686;27;20454;-84
2023/05/16 12:03:34;;;;;;;;;;;16.30;38.80;;;;;;5153729;27;19926;-83
2023/05/16 12:05:59;;;;;;;;;;;16.40;37.80;;;;;;5155805;27;19923;-83
2023/05/16 12:08:25;;;;;;;;;;;16.10;38.60;;;;;;5136309;27;19926;-84
2023/05/16 12:10:51;;;;;;;;;;;16.70;39.90;;;;;;5156227;27;19984;-84
2023/05/16 12:13:18;;;;;;;;;;;18.50;40.20;;;;;;5154185;27;19923;-85
2023/05/16 12:15:44;;;;;;;;;;;20.20;35.50;;;;;;5138469;27;19985;-82
2023/05/16 12:18:10;;;;;;;;;;;20.10;35.40;;;;;;5154978;27;20501;-83
2023/05/16 12:20:35;;;;;;;;;;;19.40;35.40;;;;;;5173420;27;19919;-83
2023/05/16 12:23:03;;;;;;;;;;;18.60;36.50;;;;;;5137988;27;19929;-83
2023/05/16 12:25:30;;;;;;;;;;;18.00;36.70;;;;;;5137553;27;19923;-84
2023/05/16 12:27:57;;;;;;;;;;;17.70;38.90;;;;;;5141122;27;19927;-83
2023/05/16 12:30:23;;;;;;;;;;;18.00;37.70;;;;;;5154946;27;20014;-84
2023/05/16 12:32:54;;;;;;;;;;;17.80;38.10;;;;;;5141349;27;19935;-83
2023/05/16 12:35:20;;;;;;;;;;;17.10;39.00;;;;;;5126423;27;19931;-83
2023/05/16 12:37:46;;;;;;;;;;;16.40;38.40;;;;;;5145031;27;20033;-83
2023/05/16 12:40:12;;;;;;;;;;;15.70;39.90;;;;;;5142792;27;20060;-84
2023/05/16 12:42:37;;;;;;;;;;;15.20;43.20;;;;;;5148654;27;19998;-83
2023/05/16 12:45:04;;;;;;;;;;;15.70;47.10;;;;;;5165334;27;20009;-83
2023/05/16 12:47:36;;;;;;;;;;;17.60;46.60;;;;;;5130676;27;19926;-84
2023/05/16 12:50:07;;;;;;;;;;;19.50;39.30;;;;;;5155268;27;19930;-84
2023/05/16 12:52:33;;;;;;;;;;;19.70;35.20;;;;;;5172353;27;19926;-85
2023/05/16 12:54:58;;;;;;;;;;;18.90;35.50;;;;;;5155137;27;19929;-83
2023/05/16 12:57:24;;;;;;;;;;;17.80;37.30;;;;;;5153686;27;19935;-84
2023/05/16 12:59:49;;;;;;;;;;;16.80;37.40;;;;;;5155102;27;20375;-84
2023/05/16 13:02:15;;;;;;;;;;;16.10;39.60;;;;;;5154236;27;19927;-84
2023/05/16 13:04:41;;;;;;;;;;;15.70;39.70;;;;;;5154570;27;19981;-84
2023/05/16 13:07:07;;;;;;;;;;;15.90;40.70;;;;;;5154730;27;20014;-85
2023/05/16 13:09:32;;;;;;;;;;;16.80;38.90;;;;;;5154281;27;19957;-85
2023/05/16 13:11:58;;;;;;;;;;;17.20;36.70;;;;;;5154378;27;19930;-83
2023/05/16 13:14:23;;;;;;;;;;;16.90;35.50;;;;;;5172730;27;20342;-83
2023/05/16 13:16:49;;;;;;;;;;;16.50;36.90;;;;;;5154500;27;19930;-84
2023/05/16 13:19:15;;;;;;;;;;;16.20;39.00;;;;;;5144542;27;19927;-85
2023/05/16 13:21:40;;;;;;;;;;;17.00;40.40;;;;;;5150326;27;20486;-85
2023/05/16 13:24:06;;;;;;;;;;;17.60;38.60;;;;;;5143248;27;19927;-84
2023/05/16 13:26:32;;;;;;;;;;;17.20;39.20;;;;;;5135918;27;20475;-83
2023/05/16 13:28:57;;;;;;;;;;;16.60;39.30;;;;;;5127992;27;19923;-84
2023/05/16 13:31:23;;;;;;;;;;;15.90;41.70;;;;;;5148453;27;20014;-84
2023/05/16 13:33:48;;;;;;;;;;;15.40;44.50;;;;;;5154155;27;19922;-84
2023/05/16 13:36:14;;;;;;;;;;;15.30;46.90;;;;;;5171593;27;19922;-84
2023/05/16 13:38:40;;;;;;;;;;;15.30;46.50;;;;;;5139436;27;19931;-84
2023/05/16 13:41:06;;;;;;;;;;;15.30;47.90;;;;;;5141097;27;19923;-84
2023/05/16 13:43:31;;;;;;;;;;;15.80;47.20;;;;;;5127522;27;19926;-85
2023/05/16 13:45:57;;;;;;;;;;;16.30;44.90;;;;;;5152149;27;20390;-84
2023/05/16 13:48:23;;;;;;;;;;;16.30;45.10;;;;;;5161662;27;19926;-85
2023/05/16 13:50:49;;;;;;;;;;;16.40;46.40;;;;;;5157529;27;20033;-84
2023/05/16 13:53:14;;;;;;;;;;;16.90;44.20;;;;;;5132539;27;20010;-84
2023/05/16 13:55:40;;;;;;;;;;;16.80;42.80;;;;;;5158853;27;19970;-84
2023/05/16 13:58:06;;;;;;;;;;;16.20;43.00;;;;;;5160907;27;19927;-84
2023/05/16 14:00:31;;;;;;;;;;;15.50;44.00;;;;;;5142559;27;20331;-83
2023/05/16 14:02:57;;;;;;;;;;;14.80;45.60;;;;;;5152124;27;19930;-84
2023/05/16 14:05:22;;;;;;;;;;;14.40;46.90;;;;;;5142303;27;20010;-84
2023/05/16 14:07:48;;;;;;;;;;;14.00;48.40;;;;;;5178214;27;19918;-84
2023/05/16 14:10:14;;;;;;;;;;;14.70;51.00;;;;;;5160705;27;19924;-84
2023/05/16 14:12:40;;;;;;;;;;;15.30;48.50;;;;;;5179369;27;19996;-84
2023/05/16 14:15:05;;;;;;;;;;;15.30;48.80;;;;;;5159746;27;20292;-85
2023/05/16 14:17:31;;;;;;;;;;;15.00;49.50;;;;;;5159673;27;20013;-83
2023/05/16 14:19:57;;;;;;;;;;;14.60;51.30;;;;;;5160184;27;19922;-83